Time;durP1;ratioP1;P1;durP2;ratioP2;P2;SDS_P1;SDS_P2;PMS_P1;PMS_P2;Temp;Humidity;BMP_temperature;BMP_pressure;BME280_temperature;BME280_humidity;BME280_pressure;Samples;Min_cycle;Max_cycle;Signal;HPM_P1;HPM_P2
2023/03/10 05:31:13;;;;;;;4.05;1.10;;;10.60;69.60;;;;;;6124566;23;20033;-75
2023/03/10 05:33:38;;;;;;;6.40;1.48;;;10.60;69.70;;;;;;6126794;23;20041;-77
2023/03/10 05:36:10;;;;;;;3.40;1.05;;;10.60;70.00;;;;;;6103687;23;20010;-78
2023/03/10 05:38:37;;;;;;;6.03;1.25;;;10.50;69.90;;;;;;6129546;23;20005;-77
2023/03/10 05:41:07;;;;;;;3.13;1.10;;;10.50;69.10;;;;;;6129191;23;20002;-77
2023/03/10 05:43:32;;;;;;;9.80;1.95;;;10.50;68.00;;;;;;6104119;23;20002;-78
2023/03/10 05:45:59;;;;;;;4.28;1.13;;;10.50;67.70;;;;;;6130621;23;20030;-77
2023/03/10 05:48:25;;;;;;;3.22;1.00;;;10.50;68.10;;;;;;6129742;23;19998;-76
2023/03/10 05:51:11;;;;;;;3.88;1.20;;;10.50;67.20;;;;;;6129794;23;20074;-75
2023/03/10 05:53:37;;;;;;;4.05;1.27;;;10.50;67.20;;;;;;6129168;23;20045;-80
2023/03/10 05:56:08;;;;;;;10.38;1.80;;;10.50;67.60;;;;;;6129462;23;20006;-84
2023/03/10 05:58:34;;;;;;;5.07;1.35;;;10.50;67.10;;;;;;6106430;23;20026;-88
2023/03/10 06:01:00;;;;;;;7.32;1.42;;;10.50;66.30;;;;;;6128571;23;20017;-88
2023/03/10 06:03:27;;;;;;;5.50;1.30;;;10.60;66.50;;;;;;6131840;23;20009;-87
2023/03/10 06:05:53;;;;;;;8.50;1.45;;;10.60;66.70;;;;;;6103813;23;20092;-87
2023/03/10 06:08:18;;;;;;;5.50;1.20;;;10.70;67.10;;;;;;6105568;23;20006;-86
2023/03/10 06:10:44;;;;;;;7.47;1.90;;;10.70;67.40;;;;;;6100829;23;20049;-89
2023/03/10 06:13:10;;;;;;;3.63;1.58;;;10.70;67.40;;;;;;6103456;23;20001;-90
2023/03/10 06:15:35;;;;;;;7.10;1.02;;;10.70;66.90;;;;;;6131474;23;20006;-83
2023/03/10 06:18:01;;;;;;;7.97;1.80;;;10.60;66.20;;;;;;6129105;23;19998;-83
2023/03/10 06:20:27;;;;;;;7.43;1.52;;;10.60;66.10;;;;;;6105701;23;20006;-83
2023/03/10 06:22:52;;;;;;;6.18;1.40;;;10.40;66.10;;;;;;6127539;23;20005;-81
2023/03/10 06:25:18;;;;;;;3.95;1.30;;;10.40;65.70;;;;;;6122708;23;20056;-78
2023/03/10 06:27:44;;;;;;;6.35;2.10;;;10.40;65.70;;;;;;6102396;23;20010;-78
2023/03/10 06:30:10;;;;;;;5.18;1.60;;;10.40;65.80;;;;;;6128115;23;20009;-78
2023/03/10 06:32:36;;;;;;;4.43;1.40;;;10.30;65.60;;;;;;6103011;23;20018;-78
2023/03/10 06:35:02;;;;;;;3.88;1.40;;;10.30;65.70;;;;;;6129404;23;20012;-77
2023/03/10 06:37:28;;;;;;;6.10;1.77;;;10.40;65.60;;;;;;6103036;23;20006;-79
2023/03/10 06:39:54;;;;;;;8.95;1.52;;;10.30;65.40;;;;;;6099656;23;20756;-75
2023/03/10 06:42:19;;;;;;;8.65;1.75;;;10.30;65.70;;;;;;6129300;23;20393;-75
2023/03/10 06:44:45;;;;;;;3.40;1.35;;;10.40;66.00;;;;;;6128279;23;20073;-75
2023/03/10 06:47:10;;;;;;;9.07;1.83;;;10.30;65.80;;;;;;6127359;23;20013;-75
2023/03/10 06:49:36;;;;;;;14.45;2.53;;;10.40;65.30;;;;;;6126742;23;20017;-75
2023/03/10 06:52:02;;;;;;;5.32;1.27;;;10.30;65.30;;;;;;6126210;23;20088;-75
2023/03/10 06:54:27;;;;;;;6.88;2.28;;;10.20;65.80;;;;;;6127581;23;20012;-76
2023/03/10 06:56:53;;;;;;;9.30;2.92;;;10.20;65.80;;;;;;6127663;23;20014;-76
2023/03/10 06:59:18;;;;;;;3.22;1.20;;;10.30;65.20;;;;;;6128246;23;19998;-76
2023/03/10 07:01:44;;;;;;;7.97;1.50;;;10.30;64.40;;;;;;6081588;23;20010;-76
2023/03/10 07:04:11;;;;;;;5.47;2.25;;;10.30;64.80;;;;;;6114428;23;19998;-76
2023/03/10 07:06:37;;;;;;;5.22;1.80;;;10.30;64.70;;;;;;6110082;23;20009;-76
2023/03/10 07:09:04;;;;;;;8.18;2.05;;;10.30;64.70;;;;;;6120640;23;20424;-76
2023/03/10 07:11:30;;;;;;;7.40;1.60;;;10.30;64.30;;;;;;6121712;23;20386;-76
2023/03/10 07:13:55;;;;;;;4.45;1.65;;;10.40;64.50;;;;;;6127321;23;20012;-76
2023/03/10 07:16:22;;;;;;;6.68;1.73;;;10.40;64.60;;;;;;6123554;23;20381;-75
2023/03/10 07:18:47;;;;;;;7.80;1.90;;;10.40;64.50;;;;;;6126778;23;20006;-76
2023/03/10 07:21:18;;;;;;;10.43;1.58;;;10.40;64.50;;;;;;6124009;23;19998;-78
2023/03/10 07:23:44;;;;;;;6.35;1.60;;;10.30;64.30;;;;;;6122576;23;20006;-75
2023/03/10 07:26:13;;;;;;;7.97;1.75;;;10.50;64.60;;;;;;6125742;23;20017;-75
2023/03/10 07:28:39;;;;;;;6.18;1.42;;;10.50;64.00;;;;;;6126171;23;20006;-75
2023/03/10 07:31:07;;;;;;;9.57;2.05;;;10.40;64.40;;;;;;6103430;23;20032;-75
2023/03/10 07:33:33;;;;;;;8.68;2.42;;;10.50;64.10;;;;;;6127491;23;20006;-74
2023/03/10 07:36:02;;;;;;;10.60;2.10;;;10.50;63.70;;;;;;6128450;23;20325;-75
2023/03/10 07:38:28;;;;;;;5.73;1.73;;;10.50;63.90;;;;;;6123370;23;20002;-75
2023/03/10 07:40:53;;;;;;;5.80;1.63;;;10.50;63.80;;;;;;6127660;23;20088;-75
2023/03/10 07:43:19;;;;;;;11.30;2.03;;;10.40;64.10;;;;;;6125615;23;20002;-75
2023/03/10 07:45:44;;;;;;;7.40;2.05;;;10.40;63.30;;;;;;6124157;23;20068;-76
2023/03/10 07:48:10;;;;;;;6.25;1.52;;;10.40;62.70;;;;;;6128325;23;20013;-75
2023/03/10 07:50:36;;;;;;;8.23;2.65;;;10.30;62.20;;;;;;6124199;23;20013;-75
2023/03/10 07:53:01;;;;;;;7.03;2.00;;;10.40;62.40;;;;;;6126740;23;19998;-75
2023/03/10 07:55:27;;;;;;;7.35;1.70;;;10.50;62.20;;;;;;6126778;23;20106;-76
2023/03/10 07:57:55;;;;;;;7.03;1.73;;;10.60;62.30;;;;;;6121255;23;20407;-76
2023/03/10 08:00:21;;;;;;;14.45;2.40;;;10.60;62.30;;;;;;6125028;23;20008;-76
2023/03/10 08:02:46;;;;;;;5.30;1.70;;;10.50;62.20;;;;;;6125170;23;21073;-75
2023/03/10 08:05:13;;;;;;;10.75;1.67;;;10.60;61.90;;;;;;6128227;23;20090;-75
2023/03/10 08:07:40;;;;;;;6.72;1.88;;;10.50;61.70;;;;;;6125132;23;20469;-75
2023/03/10 08:10:06;;;;;;;10.48;1.90;;;10.60;61.80;;;;;;6126762;23;20012;-76
2023/03/10 08:12:32;;;;;;;6.65;1.55;;;10.60;61.60;;;;;;6121844;23;20006;-75
2023/03/10 08:14:58;;;;;;;11.57;2.30;;;10.50;61.80;;;;;;6125111;23;20002;-75
2023/03/10 08:17:29;;;;;;;9.70;1.80;;;10.40;62.60;;;;;;6123551;23;20046;-75
2023/03/10 08:19:59;;;;;;;5.88;1.40;;;10.50;62.20;;;;;;6125202;23;20004;-75
2023/03/10 08:22:28;;;;;;;4.82;1.98;;;10.60;62.10;;;;;;6128341;23;20002;-75
2023/03/10 08:24:54;;;;;;;6.50;1.65;;;10.50;62.30;;;;;;6127720;23;20327;-75
2023/03/10 08:27:20;;;;;;;9.27;1.85;;;10.50;61.30;;;;;;6125506;23;20140;-75
2023/03/10 08:29:46;;;;;;;5.60;1.48;;;10.70;61.60;;;;;;6123091;23;20005;-75
2023/03/10 08:32:11;;;;;;;8.55;2.00;;;10.70;60.50;;;;;;6128267;23;20018;-75
2023/03/10 08:34:37;;;;;;;11.52;2.13;;;10.70;59.40;;;;;;6124710;23;20486;-75
2023/03/10 08:37:03;;;;;;;3.72;1.52;;;10.80;59.80;;;;;;6128309;23;20006;-75
2023/03/10 08:39:29;;;;;;;5.95;1.52;;;10.90;60.00;;;;;;6124779;23;19998;-75
2023/03/10 08:41:55;;;;;;;5.28;1.58;;;10.80;60.10;;;;;;6124722;23;20008;-75
2023/03/10 08:44:21;;;;;;;7.18;2.55;;;10.90;59.10;;;;;;6127933;23;20010;-76
2023/03/10 08:46:48;;;;;;;11.32;1.88;;;11.20;59.00;;;;;;6124215;23;20457;-76
2023/03/10 08:49:17;;;;;;;6.55;1.88;;;11.50;58.00;;;;;;6102197;23;20010;-77
2023/03/10 08:51:42;;;;;;;4.93;1.55;;;11.50;57.70;;;;;;6126208;23;20088;-77
2023/03/10 08:54:11;;;;;;;10.07;2.13;;;11.70;58.00;;;;;;6130025;23;20012;-76
2023/03/10 08:56:37;;;;;;;8.68;1.63;;;11.80;57.70;;;;;;6129811;23;20037;-75
2023/03/10 08:59:03;;;;;;;7.35;1.42;;;12.00;56.40;;;;;;6130117;23;20002;-75
2023/03/10 09:01:32;;;;;;;7.53;1.77;;;11.90;56.30;;;;;;6125288;23;20008;-76
2023/03/10 09:03:58;;;;;;;7.63;1.50;;;12.10;56.90;;;;;;6124676;23;20143;-76
2023/03/10 09:06:24;;;;;;;8.55;1.90;;;12.30;56.80;;;;;;6121939;23;20005;-76
2023/03/10 09:08:50;;;;;;;6.97;1.40;;;12.20;56.60;;;;;;6126929;23;21015;-75
2023/03/10 09:11:20;;;;;;;7.53;1.95;;;12.10;57.30;;;;;;6128270;23;20034;-75
2023/03/10 09:13:48;;;;;;;3.42;1.05;;;11.90;57.30;;;;;;6125846;23;20002;-75
2023/03/10 09:16:15;;;;;;;8.00;1.65;;;11.80;58.00;;;;;;6129298;23;20037;-75
2023/03/10 09:18:41;;;;;;;5.78;1.60;;;11.80;58.10;;;;;;6126148;23;19998;-76
2023/03/10 09:21:11;;;;;;;6.30;1.92;;;12.00;57.20;;;;;;6125890;23;20006;-76
2023/03/10 09:23:39;;;;;;;;;;;12.80;55.60;;;;;;6129530;23;20001;-76
2023/03/10 09:26:05;;;;;;;9.63;2.08;;;12.80;54.40;;;;;;6129166;23;19908;-76
2023/03/10 09:28:30;;;;;;;5.85;1.80;;;13.10;54.50;;;;;;6129581;23;20006;-76
2023/03/10 09:30:56;;;;;;;9.90;1.45;;;13.70;53.10;;;;;;6129471;23;20029;-75
2023/03/10 09:33:22;;;;;;;11.30;2.03;;;13.80;52.80;;;;;;6118448;23;20002;-76
2023/03/10 09:35:49;;;;;;;7.05;1.38;;;13.50;53.20;;;;;;6123382;23;20013;-76
2023/03/10 09:38:15;;;;;;;7.72;1.60;;;13.70;52.40;;;;;;6128154;23;20005;-76
2023/03/10 09:41:02;;;;;;;6.25;1.90;;;13.50;52.90;;;;;;6126135;23;20002;-75
2023/03/10 09:43:35;;;;;;;6.13;2.42;;;13.20;53.70;;;;;;6127538;23;20135;-76
2023/03/10 09:46:08;;;;;;;13.52;2.20;;;13.90;53.50;;;;;;6129028;23;20002;-75
2023/03/10 09:48:54;;;;;;;6.53;1.30;;;13.50;54.10;;;;;;6128719;23;20006;-76
2023/03/10 09:51:23;;;;;;;6.07;1.60;;;13.30;52.30;;;;;;6051957;23;20036;-75
2023/03/10 09:54:10;;;;;;;4.00;1.05;;;13.80;50.90;;;;;;6129143;23;20496;-75
2023/03/10 09:56:36;;;;;;;4.88;1.70;;;13.30;50.50;;;;;;6126336;23;20006;-76
2023/03/10 09:59:28;;;;;;;5.80;0.90;;;14.20;49.40;;;;;;6124679;23;20006;-76
2023/03/10 10:01:54;;;;;;;8.60;1.95;;;14.20;48.60;;;;;;6128516;23;20001;-76
2023/03/10 10:04:38;;;;;;;5.78;1.80;;;13.80;47.90;;;;;;6126261;23;20009;-76
2023/03/10 10:07:14;;;;;;;4.78;1.75;;;13.70;49.60;;;;;;6128649;23;20006;-75
2023/03/10 10:09:47;;;;;;;4.18;1.65;;;13.50;49.50;;;;;;6129165;23;20010;-76
2023/03/10 10:12:22;;;;;;;4.55;1.30;;;13.90;49.60;;;;;;6128876;23;20089;-75
2023/03/10 10:14:58;;;;;;;4.60;1.30;;;14.30;48.00;;;;;;6127374;23;20017;-76
2023/03/10 10:17:43;;;;;;;3.72;1.27;;;14.10;47.20;;;;;;6127802;23;20005;-76
2023/03/10 10:20:30;;;;;;;2.80;1.90;;;14.00;48.20;;;;;;6129185;23;20065;-76
2023/03/10 10:22:56;;;;;;;7.30;1.20;;;14.20;48.40;;;;;;6129223;23;20009;-75
2023/03/10 10:25:24;;;;;;;4.45;1.10;;;14.40;49.00;;;;;;6129209;23;19998;-76
2023/03/10 10:27:52;;;;;;;4.07;1.20;;;14.20;49.30;;;;;;6125437;23;20494;-76
2023/03/10 10:30:39;;;;;;;5.90;1.10;;;14.20;48.80;;;;;;6129329;23;20077;-76
2023/03/10 10:33:10;;;;;;;4.53;1.58;;;14.30;50.00;;;;;;6129392;23;20575;-75
2023/03/10 10:35:44;;;;;;;5.88;1.33;;;14.70;49.30;;;;;;6129010;23;20012;-76
2023/03/10 10:38:10;;;;;;;5.88;1.17;;;14.30;49.00;;;;;;6125467;23;20003;-75
2023/03/10 10:40:58;;;;;;;2.28;1.05;;;14.10;49.80;;;;;;6125343;23;20043;-76
2023/03/10 10:43:24;;;;;;;7.40;1.35;;;14.10;49.20;;;;;;6106746;23;20088;-75
2023/03/10 10:45:55;;;;;;;8.00;1.30;;;14.00;49.00;;;;;;6125523;23;20006;-76
2023/03/10 10:48:37;;;;;;;7.43;1.10;;;13.90;49.70;;;;;;6103176;23;20010;-76
2023/03/10 10:51:15;;;;;;;6.70;1.25;;;13.70;50.20;;;;;;6129173;23;20002;-75
2023/03/10 10:53:41;;;;;;;7.82;1.50;;;13.60;50.50;;;;;;6124962;23;20021;-75
2023/03/10 10:56:18;;;;;;;7.20;1.55;;;13.60;50.60;;;;;;6128665;23;20009;-76
2023/03/10 10:58:58;;;;;;;5.32;1.20;;;13.70;50.10;;;;;;6125648;23;20022;-75
2023/03/10 11:01:24;;;;;;;3.83;1.08;;;13.50;50.10;;;;;;6125517;23;20002;-76
2023/03/10 11:04:06;;;;;;;11.52;1.63;;;13.30;51.50;;;;;;6128167;23;20002;-75
2023/03/10 11:06:34;;;;;;;6.00;1.17;;;13.40;51.70;;;;;;6125685;23;20009;-76
2023/03/10 11:09:20;;;;;;;7.68;1.52;;;13.70;50.80;;;;;;6125428;23;20005;-75
2023/03/10 11:12:06;;;;;;;3.45;1.05;;;14.10;51.30;;;;;;6128691;23;20005;-75
2023/03/10 11:14:48;;;;;;;5.72;1.08;;;14.10;49.10;;;;;;6124249;23;20637;-75
2023/03/10 11:17:45;;;;;;;4.93;0.90;;;14.10;48.50;;;;;;6123817;23;20337;-75
2023/03/10 11:20:35;;;;;;;5.45;1.05;;;14.10;48.20;;;;;;6125033;23;20006;-75
2023/03/10 11:23:11;;;;;;;4.20;1.58;;;14.10;47.80;;;;;;6125291;23;20052;-75
2023/03/10 11:25:45;;;;;;;2.55;1.08;;;14.20;47.50;;;;;;6128388;23;19998;-75
2023/03/10 11:28:35;;;;;;;1.48;0.80;;;14.20;47.20;;;;;;6102647;23;20002;-76
2023/03/10 11:31:01;;;;;;;;;;;14.20;47.80;;;;;;6128773;23;20014;-75
2023/03/10 11:33:51;;;;;;;2.65;0.73;;;14.20;46.70;;;;;;6128774;23;19913;-76
2023/03/10 11:36:55;;;;;;;4.43;1.02;;;14.10;47.10;;;;;;6124087;23;20065;-76
2023/03/10 11:39:36;;;;;;;4.07;1.30;;;13.90;47.40;;;;;;6007048;23;20020;-77
2023/03/10 11:42:12;;;;;;;6.80;1.25;;;13.80;48.00;;;;;;6124795;23;20005;-76
2023/03/10 11:45:01;;;;;;;4.03;1.25;;;13.80;48.80;;;;;;6128673;23;19998;-77
2023/03/10 11:47:35;;;;;;;8.13;1.15;;;13.80;48.20;;;;;;6125543;23;20010;-76
2023/03/10 11:50:21;;;;;;;5.38;1.00;;;14.00;48.00;;;;;;6124386;23;20013;-74
2023/03/10 11:52:48;;;;;;;4.32;1.00;;;14.20;47.90;;;;;;6104182;23;20438;-76
2023/03/10 11:55:21;;;;;;;3.00;1.23;;;14.30;48.00;;;;;;6125630;23;20416;-77
2023/03/10 11:57:51;;;;;;;3.17;1.00;;;14.30;47.20;;;;;;6128056;23;20101;-77
2023/03/10 12:00:24;;;;;;;7.35;1.13;;;14.40;46.50;;;;;;6102658;23;20006;-77
2023/03/10 12:03:06;;;;;;;4.15;1.10;;;14.60;46.40;;;;;;6102275;23;20017;-76
2023/03/10 12:05:48;;;;;;;3.03;0.85;;;14.60;46.20;;;;;;6124715;23;20005;-77
2023/03/10 12:08:16;;;;;;;2.85;0.88;;;14.60;45.70;;;;;;6128209;23;20002;-75
2023/03/10 12:10:42;;;;;;;2.67;0.90;;;14.60;46.20;;;;;;6124690;23;20077;-76
2023/03/10 12:13:22;;;;;;;5.97;1.00;;;14.60;46.60;;;;;;6124779;23;20009;-74
2023/03/10 12:15:49;;;;;;;8.57;1.58;;;14.50;46.00;;;;;;6127020;23;20006;-75
2023/03/10 12:18:15;;;;;;;6.30;1.50;;;14.30;46.80;;;;;;6122561;23;20009;-75
2023/03/10 12:20:40;;;;;;;7.55;1.20;;;13.90;46.90;;;;;;6127097;23;19999;-75
2023/03/10 12:23:09;;;;;;;2.65;0.98;;;13.70;47.40;;;;;;6125711;23;20001;-75
2023/03/10 12:25:37;;;;;;;5.15;1.38;;;13.70;48.30;;;;;;6102704;23;20002;-74
2023/03/10 12:28:23;;;;;;;9.65;1.55;;;13.80;49.60;;;;;;6128701;23;20517;-74
2023/03/10 12:30:49;;;;;;;5.72;1.10;;;13.70;48.80;;;;;;6103272;23;20022;-75
2023/03/10 12:33:36;;;;;;;3.25;0.82;;;13.80;48.70;;;;;;6127877;23;20002;-73
2023/03/10 12:36:23;;;;;;;6.82;1.35;;;13.80;49.30;;;;;;6125026;23;20001;-74
2023/03/10 12:38:56;;;;;;;5.28;1.42;;;13.80;49.30;;;;;;6128204;23;20013;-75
2023/03/10 12:41:25;;;;;;;5.20;1.40;;;13.90;48.30;;;;;;6123696;23;20052;-74
2023/03/10 12:44:35;;;;;;;5.57;1.52;;;13.90;48.10;;;;;;6123428;23;20084;-75
2023/03/10 12:47:07;;;;;;;5.40;1.00;;;13.90;48.40;;;;;;6130280;23;20002;-74
2023/03/10 12:49:51;;;;;;;5.15;1.25;;;13.80;48.10;;;;;;6125926;23;20068;-75
2023/03/10 12:52:49;;;;;;;5.72;1.02;;;13.80;48.00;;;;;;6129533;23;20104;-74
2023/03/10 12:55:23;;;;;;;5.22;1.02;;;13.70;48.60;;;;;;6125910;23;20368;-75
2023/03/10 12:57:52;;;;;;;8.00;1.67;;;13.70;48.50;;;;;;6127064;23;20013;-74
2023/03/10 13:00:47;;;;;;;2.90;1.20;;;13.60;49.00;;;;;;6126063;23;20002;-74
2023/03/10 13:03:25;;;;;;;4.05;0.73;;;13.50;48.50;;;;;;6128652;23;20081;-75
2023/03/10 13:06:43;;;;;;;2.42;1.10;;;13.30;48.70;;;;;;6129602;23;20057;-75
2023/03/10 13:09:24;;;;;;;8.55;1.73;;;13.20;49.20;;;;;;6120767;23;20006;-74
2023/03/10 13:12:01;;;;;;;5.60;0.98;;;13.30;48.90;;;;;;6129102;23;20010;-74
2023/03/10 13:14:39;;;;;;;6.43;1.33;;;13.20;47.70;;;;;;6127119;23;19997;-75
2023/03/10 13:17:08;;;;;;;5.97;1.10;;;13.20;47.70;;;;;;6128273;23;20006;-74
2023/03/10 13:19:36;;;;;;;6.78;1.30;;;13.20;48.90;;;;;;6121968;23;20002;-74
2023/03/10 13:22:06;;;;;;;4.50;1.20;;;13.20;48.60;;;;;;6125319;23;20013;-74
2023/03/10 13:24:41;;;;;;;3.08;1.35;;;13.10;48.10;;;;;;6124880;23;20400;-74
2023/03/10 13:27:13;;;;;;;4.05;1.45;;;13.10;48.40;;;;;;6125528;23;20009;-75
2023/03/10 13:29:39;;;;;;;7.20;1.20;;;13.10;49.70;;;;;;6129227;23;20033;-74
2023/03/10 13:32:06;;;;;;;6.18;1.75;;;13.20;49.60;;;;;;6129320;23;20101;-75
2023/03/10 13:34:33;;;;;;;3.42;1.35;;;13.20;49.60;;;;;;6129115;23;20053;-75
2023/03/10 13:37:04;;;;;;;8.50;2.20;;;13.20;49.80;;;;;;6128493;23;20064;-75
2023/03/10 13:39:30;;;;;;;4.80;1.30;;;13.00;48.90;;;;;;6098794;23;20056;-74
2023/03/10 13:42:00;;;;;;;7.25;1.38;;;12.90;48.90;;;;;;6128955;23;20002;-74
2023/03/10 13:44:31;;;;;;;4.68;1.67;;;12.80;49.80;;;;;;6125024;23;20009;-75
2023/03/10 13:47:03;;;;;;;3.67;1.15;;;12.90;50.30;;;;;;6128320;23;20010;-74
2023/03/10 13:49:36;;;;;;;7.63;1.60;;;12.80;50.10;;;;;;6129030;23;20014;-75
2023/03/10 13:52:09;;;;;;;4.88;0.93;;;12.80;50.50;;;;;;6103378;23;20076;-75
2023/03/10 13:54:40;;;;;;;4.70;1.25;;;12.80;50.70;;;;;;6129143;23;20009;-75
2023/03/10 13:57:26;;;;;;;3.38;0.98;;;12.80;50.80;;;;;;6125228;23;20033;-74
2023/03/10 13:59:54;;;;;;;6.18;1.63;;;12.80;51.40;;;;;;6125151;23;20476;-75
2023/03/10 14:02:34;;;;;;;2.70;0.98;;;12.70;50.90;;;;;;6128694;23;20002;-76
2023/03/10 14:05:00;;;;;;;3.22;0.93;;;12.60;51.60;;;;;;6102396;23;20010;-75
2023/03/10 14:07:30;;;;;;;6.47;1.15;;;12.50;51.20;;;;;;6128558;23;20013;-74
2023/03/10 14:10:04;;;;;;;3.50;1.45;;;12.40;51.90;;;;;;6099921;23;20045;-75
2023/03/10 14:12:54;;;;;;;4.22;1.13;;;12.50;51.70;;;;;;6102646;23;20033;-74
2023/03/10 14:15:24;;;;;;;5.50;1.55;;;12.40;51.70;;;;;;6109651;23;20037;-74
2023/03/10 14:18:16;;;;;;;8.00;1.98;;;12.30;52.30;;;;;;6123776;23;20405;-75
2023/03/10 14:20:45;;;;;;;5.28;1.98;;;12.20;53.40;;;;;;6128017;23;20009;-74
2023/03/10 14:23:17;;;;;;;7.28;1.35;;;12.20;53.60;;;;;;6101115;23;20056;-75
2023/03/10 14:25:54;;;;;;;4.63;1.55;;;12.20;54.50;;;;;;6125854;23;19998;-75
2023/03/10 14:28:30;;;;;;;2.83;0.95;;;12.10;54.90;;;;;;6102952;23;20002;-74
2023/03/10 14:30:59;;;;;;;4.63;1.30;;;12.00;55.90;;;;;;6124752;23;20018;-75
2023/03/10 14:33:25;;;;;;;7.15;1.20;;;12.00;56.80;;;;;;6125098;23;19998;-74
2023/03/10 14:35:50;;;;;;;2.53;1.13;;;11.80;57.20;;;;;;6125200;23;20465;-77
2023/03/10 14:38:17;;;;;;;2.80;1.30;;;11.70;58.20;;;;;;6127664;23;20009;-75
2023/03/10 14:40:45;;;;;;;3.72;1.33;;;11.70;58.40;;;;;;6125882;23;19998;-75
2023/03/10 14:43:19;;;;;;;5.18;1.20;;;11.70;59.30;;;;;;6124794;23;19998;-75
2023/03/10 14:45:46;;;;;;;7.88;1.58;;;11.60;59.50;;;;;;6099373;23;20109;-74
2023/03/10 14:48:16;;;;;;;6.28;1.30;;;11.70;59.60;;;;;;6127411;23;20429;-75
2023/03/10 14:50:41;;;;;;;;;;;11.60;59.80;;;;;;6129352;23;20061;-74
2023/03/10 14:53:16;;;;;;;3.28;1.30;;;11.40;60.10;;;;;;6128275;23;19904;-74
2023/03/10 14:55:44;;;;;;;6.82;1.33;;;11.40;60.80;;;;;;6128396;23;20002;-74
2023/03/10 14:58:35;;;;;;;3.22;1.13;;;11.30;61.60;;;;;;6124911;23;20009;-74
2023/03/10 15:01:00;;;;;;;4.88;1.63;;;11.30;61.90;;;;;;6121377;23;20069;-74
2023/03/10 15:03:29;;;;;;;3.90;1.55;;;11.20;62.70;;;;;;6128250;23;20002;-74
2023/03/10 15:05:54;;;;;;;3.05;1.17;;;11.10;62.90;;;;;;6102381;23;20009;-74
2023/03/10 15:08:20;;;;;;;5.90;1.75;;;11.20;63.50;;;;;;6128334;23;20060;-74
2023/03/10 15:10:49;;;;;;;4.95;2.38;;;11.20;63.40;;;;;;6124482;23;19998;-75
2023/03/10 15:13:21;;;;;;;7.00;1.83;;;11.20;63.30;;;;;;6128556;23;20009;-74
2023/03/10 15:15:47;;;;;;;3.05;1.35;;;11.00;63.70;;;;;;6125357;23;20037;-74
2023/03/10 15:18:17;;;;;;;6.15;1.45;;;11.00;63.90;;;;;;6125759;23;20437;-75
2023/03/10 15:20:43;;;;;;;4.43;1.52;;;10.90;64.40;;;;;;6127443;23;20528;-75
2023/03/10 15:23:10;;;;;;;5.93;1.55;;;11.00;64.50;;;;;;6124836;23;20084;-75
2023/03/10 15:25:35;;;;;;;5.65;1.65;;;11.00;64.20;;;;;;6127754;23;19998;-74
2023/03/10 15:28:01;;;;;;;4.13;1.60;;;10.90;64.20;;;;;;6125346;23;20036;-74
2023/03/10 15:30:30;;;;;;;3.10;1.00;;;10.70;64.00;;;;;;6124332;23;20026;-74
2023/03/10 15:32:56;;;;;;;6.03;1.40;;;10.60;63.90;;;;;;6121090;23;20009;-75
2023/03/10 15:35:21;;;;;;;2.85;1.25;;;10.50;64.10;;;;;;6123481;23;20720;-74
2023/03/10 15:37:49;;;;;;;6.03;1.50;;;10.40;63.80;;;;;;6127227;23;20012;-75
2023/03/10 15:40:20;;;;;;;4.75;1.55;;;10.30;64.90;;;;;;6128137;23;20026;-75
2023/03/10 15:42:46;;;;;;;2.53;1.10;;;10.30;65.80;;;;;;6127882;23;20002;-74
2023/03/10 15:45:13;;;;;;;2.28;1.10;;;10.30;66.50;;;;;;6094594;23;20402;-75
2023/03/10 15:47:39;;;;;;;2.55;1.27;;;10.30;66.20;;;;;;6123698;23;20013;-75
2023/03/10 15:50:06;;;;;;;4.15;1.50;;;10.40;66.30;;;;;;6128661;23;20430;-75
2023/03/10 15:52:32;;;;;;;4.38;1.90;;;10.40;66.30;;;;;;6127345;23;20638;-75
2023/03/10 15:54:58;;;;;;;7.88;1.92;;;10.30;65.70;;;;;;6128050;23;20034;-75
2023/03/10 15:57:23;;;;;;;2.20;1.10;;;10.30;66.30;;;;;;6128572;23;20441;-75
2023/03/10 15:59:49;;;;;;;2.95;1.48;;;10.30;66.50;;;;;;6127499;23;19998;-74
2023/03/10 16:02:15;;;;;;;5.15;1.20;;;10.30;66.30;;;;;;6124833;23;20006;-75
2023/03/10 16:04:43;;;;;;;5.43;1.35;;;10.40;66.40;;;;;;6128037;23;19998;-74
2023/03/10 16:07:09;;;;;;;1.50;0.93;;;10.40;66.20;;;;;;6098513;23;20014;-74
2023/03/10 16:09:35;;;;;;;6.43;1.45;;;10.40;66.30;;;;;;6124289;23;20006;-75
2023/03/10 16:12:01;;;;;;;3.67;1.40;;;10.30;66.70;;;;;;6128389;23;20013;-75
2023/03/10 16:14:28;;;;;;;3.50;1.90;;;10.30;66.40;;;;;;6124704;23;20010;-74
2023/03/10 16:16:53;;;;;;;3.00;1.35;;;10.30;66.50;;;;;;6124105;23;20357;-75
2023/03/10 16:19:19;;;;;;;2.72;1.50;;;10.20;66.50;;;;;;6127962;23;20077;-75
2023/03/10 16:21:45;;;;;;;2.65;1.42;;;10.10;67.00;;;;;;6125138;23;20024;-75
2023/03/10 16:24:11;;;;;;;3.97;2.15;;;10.20;67.10;;;;;;6127233;23;20005;-74
2023/03/10 16:26:38;;;;;;;8.20;3.60;;;10.10;67.30;;;;;;6128019;23;20336;-76
2023/03/10 16:29:03;;;;;;;7.50;3.00;;;10.20;67.30;;;;;;6127129;23;20438;-79
2023/03/10 16:31:29;;;;;;;5.95;2.28;;;10.20;67.80;;;;;;6124772;23;20092;-84
2023/03/10 16:33:55;;;;;;;3.45;2.15;;;10.10;67.40;;;;;;6095421;23;20658;-79
2023/03/10 16:36:24;;;;;;;4.13;1.73;;;10.00;67.70;;;;;;6100354;23;20014;-78
2023/03/10 16:38:52;;;;;;;5.55;2.67;;;10.00;67.40;;;;;;6119205;23;20307;-83
2023/03/10 16:41:18;;;;;;;2.85;2.00;;;10.00;67.80;;;;;;6124786;23;20445;-80
2023/03/10 16:43:45;;;;;;;6.00;3.60;;;10.00;68.00;;;;;;6097849;23;20009;-74
2023/03/10 16:46:23;;;;;;;4.60;2.85;;;9.90;68.30;;;;;;6125416;23;20025;-76
2023/03/10 16:48:51;;;;;;;3.92;3.10;;;9.90;68.90;;;;;;6128236;23;20002;-83
2023/03/10 16:51:27;;;;;;;8.50;4.60;;;9.90;68.80;;;;;;6098815;23;20006;-77
2023/03/10 16:53:56;;;;;;;4.80;4.35;;;9.80;69.20;;;;;;6127457;23;20009;-77
2023/03/10 16:56:24;;;;;;;6.60;3.83;;;9.70;69.60;;;;;;6127965;23;20013;-76
2023/03/10 16:58:50;;;;;;;4.15;3.35;;;9.70;69.90;;;;;;6122653;23;20002;-77
2023/03/10 17:01:16;;;;;;;6.45;3.95;;;9.70;69.80;;;;;;6127798;23;19998;-77
2023/03/10 17:03:42;;;;;;;6.25;5.65;;;9.70;70.00;;;;;;6127242;23;20009;-77
2023/03/10 17:06:13;;;;;;;5.00;3.90;;;9.70;70.20;;;;;;6128094;23;20013;-77
2023/03/10 17:08:40;;;;;;;6.47;3.15;;;9.70;69.90;;;;;;6127262;23;20033;-77
2023/03/10 17:11:14;;;;;;;7.75;4.55;;;9.70;69.90;;;;;;6125096;23;20010;-76
2023/03/10 17:13:40;;;;;;;9.82;4.20;;;9.60;70.00;;;;;;6129276;23;20060;-76
2023/03/10 17:16:11;;;;;;;10.48;5.43;;;9.60;70.10;;;;;;6127741;23;20010;-75
2023/03/10 17:18:37;;;;;;;16.10;7.63;;;9.60;70.10;;;;;;6103401;23;20002;-77
2023/03/10 17:21:17;;;;;;;18.27;8.02;;;9.60;70.10;;;;;;6126636;23;20331;-78
2023/03/10 17:23:43;;;;;;;21.48;8.68;;;9.50;70.20;;;;;;6128933;23;19998;-77
2023/03/10 17:26:11;;;;;;;12.65;6.07;;;9.50;70.20;;;;;;6128532;23;20010;-76
2023/03/10 17:28:37;;;;;;;9.02;6.03;;;9.50;70.60;;;;;;6129724;23;20065;-74
2023/03/10 17:31:14;;;;;;;9.68;5.15;;;9.40;70.60;;;;;;6109199;23;20045;-74
2023/03/10 17:33:41;;;;;;;7.03;4.03;;;9.40;70.60;;;;;;6125429;23;20013;-74
2023/03/10 17:36:10;;;;;;;9.02;5.78;;;9.30;71.60;;;;;;6127670;23;20014;-74
2023/03/10 17:38:36;;;;;;;8.15;5.03;;;9.40;71.20;;;;;;6126223;23;20009;-73
2023/03/10 17:41:06;;;;;;;12.02;5.90;;;9.30;71.80;;;;;;6126616;23;20006;-75
2023/03/10 17:43:32;;;;;;;15.80;8.30;;;9.30;71.50;;;;;;6127545;23;20005;-74
2023/03/10 17:46:00;;;;;;;14.35;7.25;;;9.30;71.40;;;;;;6125503;23;19998;-75
2023/03/10 17:48:27;;;;;;;17.65;9.80;;;9.20;71.60;;;;;;6128576;23;20406;-76
2023/03/10 17:50:53;;;;;;;12.98;6.38;;;9.20;71.40;;;;;;6127923;23;20500;-75
2023/03/10 17:53:18;;;;;;;11.65;5.25;;;9.20;72.00;;;;;;6126992;23;20084;-74
2023/03/10 17:55:44;;;;;;;9.00;4.97;;;9.20;71.80;;;;;;6127472;23;20112;-72
2023/03/10 17:58:10;;;;;;;6.68;3.05;;;9.10;72.40;;;;;;6123482;23;20509;-75
2023/03/10 18:00:35;;;;;;;4.47;3.00;;;9.20;72.10;;;;;;6127774;23;20040;-71
2023/03/10 18:03:01;;;;;;;9.45;4.82;;;9.20;72.10;;;;;;6128873;23;20002;-75
2023/03/10 18:05:27;;;;;;;9.25;4.25;;;9.20;71.40;;;;;;6129086;23;20013;-75
2023/03/10 18:07:53;;;;;;;7.43;3.63;;;9.10;71.20;;;;;;6124818;23;20385;-78
2023/03/10 18:10:20;;;;;;;6.88;4.70;;;9.10;71.50;;;;;;6122575;23;20006;-76
2023/03/10 18:12:51;;;;;;;4.75;3.83;;;9.10;71.40;;;;;;6126361;23;20001;-79
2023/03/10 18:15:18;;;;;;;6.25;3.67;;;9.10;71.20;;;;;;6125213;23;20010;-75
2023/03/10 18:17:43;;;;;;;6.65;3.20;;;9.00;71.20;;;;;;6046458;23;20529;-82
2023/03/10 18:20:13;;;;;;;6.15;3.25;;;9.00;71.30;;;;;;6128632;23;20002;-79
2023/03/10 18:22:39;;;;;;;8.70;3.38;;;8.90;72.00;;;;;;6117152;23;20080;-76
2023/03/10 18:25:05;;;;;;;7.88;3.72;;;8.90;72.20;;;;;;6129094;23;20005;-81
2023/03/10 18:27:31;;;;;;;4.60;3.25;;;8.90;72.20;;;;;;6113798;23;20094;-84
2023/03/10 18:29:58;;;;;;;5.38;2.17;;;8.90;72.20;;;;;;6120095;23;20010;-81
2023/03/10 18:32:28;;;;;;;6.22;2.88;;;9.00;71.40;;;;;;6128328;23;20025;-79
2023/03/10 18:34:54;;;;;;;7.55;2.80;;;8.90;71.30;;;;;;6124564;23;20006;-80